sensor_id;sensor_type;location;lat;lon;timestamp;pressure;altitude;pressure_sealevel;temperature;humidity
51147;BME280;37207;53.060;18.726;2023-06-10T00:00:51;100776.39;;;18.50;56.56
51147;BME280;37207;53.060;18.726;2023-06-10T00:03:25;100776.83;;;18.45;56.60
51147;BME280;37207;53.060;18.726;2023-06-10T00:05:52;100777.93;;;18.40;56.68
51147;BME280;37207;53.060;18.726;2023-06-10T00:08:18;100781.61;;;18.33;56.66
51147;BME280;37207;53.060;18.726;2023-06-10T00:10:45;100785.19;;;18.27;56.60
51147;BME280;37207;53.060;18.726;2023-06-10T00:13:11;100788.04;;;18.21;56.74
51147;BME280;37207;53.060;18.726;2023-06-10T00:15:37;100792.71;;;18.15;56.73
51147;BME280;37207;53.060;18.726;2023-06-10T00:18:04;100798.73;;;18.10;56.88
51147;BME280;37207;53.060;18.726;2023-06-10T00:20:30;100797.89;;;18.06;56.92
51147;BME280;37207;53.060;18.726;2023-06-10T00:22:58;100797.27;;;18.00;56.99
51147;BME280;37207;53.060;18.726;2023-06-10T00:25:25;100793.83;;;17.93;57.23
51147;BME280;37207;53.060;18.726;2023-06-10T00:27:51;100796.72;;;17.86;57.31
51147;BME280;37207;53.060;18.726;2023-06-10T00:30:17;100788.34;;;17.81;57.32
51147;BME280;37207;53.060;18.726;2023-06-10T00:32:43;100799.15;;;17.78;57.51
51147;BME280;37207;53.060;18.726;2023-06-10T00:35:09;100798.32;;;17.75;57.58
51147;BME280;37207;53.060;18.726;2023-06-10T00:37:35;100802.86;;;17.73;57.63
51147;BME280;37207;53.060;18.726;2023-06-10T00:40:02;100801.59;;;17.73;57.70
51147;BME280;37207;53.060;18.726;2023-06-10T00:42:28;100805.46;;;17.73;57.74
51147;BME280;37207;53.060;18.726;2023-06-10T00:44:54;100804.55;;;17.72;57.75
51147;BME280;37207;53.060;18.726;2023-06-10T00:47:21;100800.95;;;17.72;57.70
51147;BME280;37207;53.060;18.726;2023-06-10T00:49:47;100795.32;;;17.76;57.76
51147;BME280;37207;53.060;18.726;2023-06-10T00:52:14;100797.48;;;17.77;57.76
51147;BME280;37207;53.060;18.726;2023-06-10T00:54:40;100798.30;;;17.78;57.69
51147;BME280;37207;53.060;18.726;2023-06-10T00:57:08;100801.84;;;17.78;57.71
51147;BME280;37207;53.060;18.726;2023-06-10T00:59:35;100801.16;;;17.80;57.76
51147;BME280;37207;53.060;18.726;2023-06-10T01:02:01;100803.81;;;17.82;57.73
51147;BME280;37207;53.060;18.726;2023-06-10T01:04:29;100806.98;;;17.86;57.62
51147;BME280;37207;53.060;18.726;2023-06-10T01:09:54;100812.16;;;17.91;57.57
51147;BME280;37207;53.060;18.726;2023-06-10T01:12:30;100811.20;;;17.91;57.42
51147;BME280;37207;53.060;18.726;2023-06-10T01:14:59;100809.77;;;17.91;57.34
51147;BME280;37207;53.060;18.726;2023-06-10T01:17:25;100809.80;;;17.92;57.20
51147;BME280;37207;53.060;18.726;2023-06-10T01:19:54;100813.17;;;17.95;57.18
51147;BME280;37207;53.060;18.726;2023-06-10T01:22:25;100815.93;;;17.97;57.02
51147;BME280;37207;53.060;18.726;2023-06-10T01:24:55;100817.52;;;18.00;56.93
51147;BME280;37207;53.060;18.726;2023-06-10T01:27:29;100819.73;;;18.03;56.89
51147;BME280;37207;53.060;18.726;2023-06-10T01:30:04;100824.14;;;18.04;56.72
51147;BME280;37207;53.060;18.726;2023-06-10T01:32:37;100824.52;;;18.05;56.62
51147;BME280;37207;53.060;18.726;2023-06-10T01:35:08;100827.55;;;18.06;56.51
51147;BME280;37207;53.060;18.726;2023-06-10T01:37:38;100830.61;;;18.06;56.39
51147;BME280;37207;53.060;18.726;2023-06-10T01:40:06;100831.36;;;18.06;56.39
51147;BME280;37207;53.060;18.726;2023-06-10T01:42:34;100834.17;;;18.05;56.28
51147;BME280;37207;53.060;18.726;2023-06-10T01:45:00;100842.42;;;18.04;56.25
51147;BME280;37207;53.060;18.726;2023-06-10T01:47:27;100841.98;;;18.03;56.16
51147;BME280;37207;53.060;18.726;2023-06-10T01:49:52;100842.59;;;17.98;56.13
51147;BME280;37207;53.060;18.726;2023-06-10T01:52:18;100846.42;;;17.93;56.21
51147;BME280;37207;53.060;18.726;2023-06-10T01:54:44;100854.40;;;17.89;56.37
51147;BME280;37207;53.060;18.726;2023-06-10T01:57:11;100857.56;;;17.84;56.49
51147;BME280;37207;53.060;18.726;2023-06-10T01:59:37;100864.33;;;17.82;56.63
51147;BME280;37207;53.060;18.726;2023-06-10T02:02:04;100865.42;;;17.80;56.55
51147;BME280;37207;53.060;18.726;2023-06-10T02:04:31;100863.83;;;17.78;56.63
51147;BME280;37207;53.060;18.726;2023-06-10T02:06:58;100866.09;;;17.76;56.68
51147;BME280;37207;53.060;18.726;2023-06-10T02:09:24;100867.65;;;17.72;56.83
51147;BME280;37207;53.060;18.726;2023-06-10T02:11:50;100872.75;;;17.70;57.01
51147;BME280;37207;53.060;18.726;2023-06-10T02:14:16;100874.01;;;17.67;57.12
51147;BME280;37207;53.060;18.726;2023-06-10T02:16:42;100872.73;;;17.69;57.18
51147;BME280;37207;53.060;18.726;2023-06-10T02:19:11;100871.73;;;17.70;57.22
51147;BME280;37207;53.060;18.726;2023-06-10T02:21:38;100871.42;;;17.71;57.17
51147;BME280;37207;53.060;18.726;2023-06-10T02:24:04;100868.56;;;17.72;57.13
51147;BME280;37207;53.060;18.726;2023-06-10T02:26:30;100867.42;;;17.75;57.11
51147;BME280;37207;53.060;18.726;2023-06-10T02:28:59;100869.02;;;17.77;57.09
51147;BME280;37207;53.060;18.726;2023-06-10T02:31:25;100871.23;;;17.78;57.09
51147;BME280;37207;53.060;18.726;2023-06-10T02:33:52;100872.75;;;17.79;56.99
51147;BME280;37207;53.060;18.726;2023-06-10T02:36:17;100868.77;;;17.80;57.00
51147;BME280;37207;53.060;18.726;2023-06-10T02:38:43;100871.27;;;17.80;57.03
51147;BME280;37207;53.060;18.726;2023-06-10T02:41:09;100870.05;;;17.80;57.08
51147;BME280;37207;53.060;18.726;2023-06-10T02:43:35;100870.61;;;17.80;57.11
51147;BME280;37207;53.060;18.726;2023-06-10T02:46:02;100869.49;;;17.80;57.16
51147;BME280;37207;53.060;18.726;2023-06-10T02:48:28;100873.75;;;17.80;57.23
51147;BME280;37207;53.060;18.726;2023-06-10T02:50:54;100873.89;;;17.82;57.28
51147;BME280;37207;53.060;18.726;2023-06-10T02:53:31;100877.08;;;17.83;57.40
51147;BME280;37207;53.060;18.726;2023-06-10T02:56:02;100878.20;;;17.82;57.37
51147;BME280;37207;53.060;18.726;2023-06-10T02:58:29;100879.84;;;17.84;57.48
51147;BME280;37207;53.060;18.726;2023-06-10T03:00:55;100878.39;;;17.84;57.58
51147;BME280;37207;53.060;18.726;2023-06-10T03:03:21;100880.73;;;17.84;57.57
51147;BME280;37207;53.060;18.726;2023-06-10T03:06:01;100883.34;;;17.84;57.53
51147;BME280;37207;53.060;18.726;2023-06-10T03:08:28;100886.27;;;17.82;57.59
51147;BME280;37207;53.060;18.726;2023-06-10T03:10:55;100889.13;;;17.82;57.67
51147;BME280;37207;53.060;18.726;2023-06-10T03:13:21;100891.53;;;17.81;57.56
51147;BME280;37207;53.060;18.726;2023-06-10T03:15:47;100887.13;;;17.79;57.80
51147;BME280;37207;53.060;18.726;2023-06-10T03:18:15;100889.98;;;17.78;57.86
51147;BME280;37207;53.060;18.726;2023-06-10T03:20:42;100888.84;;;17.76;57.94
51147;BME280;37207;53.060;18.726;2023-06-10T03:23:10;100895.37;;;17.73;58.01
51147;BME280;37207;53.060;18.726;2023-06-10T03:25:36;100899.41;;;17.71;58.13
51147;BME280;37207;53.060;18.726;2023-06-10T03:28:03;100899.75;;;17.68;58.22
51147;BME280;37207;53.060;18.726;2023-06-10T03:30:28;100898.75;;;17.65;58.34
51147;BME280;37207;53.060;18.726;2023-06-10T03:32:55;100897.88;;;17.63;58.41
51147;BME280;37207;53.060;18.726;2023-06-10T03:35:22;100901.50;;;17.61;58.49
51147;BME280;37207;53.060;18.726;2023-06-10T03:37:48;100902.94;;;17.60;58.61
51147;BME280;37207;53.060;18.726;2023-06-10T03:40:14;100910.67;;;17.59;58.72
51147;BME280;37207;53.060;18.726;2023-06-10T03:42:43;100911.61;;;17.57;58.87
51147;BME280;37207;53.060;18.726;2023-06-10T03:45:10;100911.73;;;17.55;58.92
51147;BME280;37207;53.060;18.726;2023-06-10T03:47:37;100915.05;;;17.53;58.97
51147;BME280;37207;53.060;18.726;2023-06-10T03:50:05;100912.73;;;17.52;59.12
51147;BME280;37207;53.060;18.726;2023-06-10T03:52:31;100916.45;;;17.50;59.16
51147;BME280;37207;53.060;18.726;2023-06-10T03:54:57;100921.02;;;17.50;59.39
51147;BME280;37207;53.060;18.726;2023-06-10T03:57:23;100923.99;;;17.49;59.34
51147;BME280;37207;53.060;18.726;2023-06-10T03:59:49;100926.92;;;17.48;59.48
51147;BME280;37207;53.060;18.726;2023-06-10T04:02:15;100930.84;;;17.47;59.62
51147;BME280;37207;53.060;18.726;2023-06-10T04:04:42;100935.66;;;17.47;59.81
51147;BME280;37207;53.060;18.726;2023-06-10T04:07:08;100939.02;;;17.50;59.92
51147;BME280;37207;53.060;18.726;2023-06-10T04:09:34;100944.91;;;17.54;60.05
51147;BME280;37207;53.060;18.726;2023-06-10T04:12:02;100949.47;;;17.59;60.09
51147;BME280;37207;53.060;18.726;2023-06-10T04:14:28;100952.42;;;17.65;60.04
51147;BME280;37207;53.060;18.726;2023-06-10T04:16:54;100954.96;;;17.73;60.09
51147;BME280;37207;53.060;18.726;2023-06-10T04:19:21;100958.07;;;17.81;60.00
51147;BME280;37207;53.060;18.726;2023-06-10T04:21:47;100960.40;;;17.89;59.99
51147;BME280;37207;53.060;18.726;2023-06-10T04:24:13;100964.02;;;17.99;60.00
51147;BME280;37207;53.060;18.726;2023-06-10T04:26:38;100965.05;;;18.09;59.95
51147;BME280;37207;53.060;18.726;2023-06-10T04:29:05;100961.13;;;18.21;59.88
51147;BME280;37207;53.060;18.726;2023-06-10T04:31:31;100963.63;;;18.31;59.69
51147;BME280;37207;53.060;18.726;2023-06-10T04:33:58;100962.95;;;18.41;59.47
51147;BME280;37207;53.060;18.726;2023-06-10T04:36:24;100962.96;;;18.52;59.19
51147;BME280;37207;53.060;18.726;2023-06-10T04:38:50;100962.58;;;18.61;58.93
51147;BME280;37207;53.060;18.726;2023-06-10T04:41:18;100967.18;;;18.69;58.79
51147;BME280;37207;53.060;18.726;2023-06-10T04:43:44;100967.61;;;18.81;58.83
51147;BME280;37207;53.060;18.726;2023-06-10T04:46:10;100969.60;;;18.94;58.63
51147;BME280;37207;53.060;18.726;2023-06-10T04:48:36;100972.77;;;19.05;58.23
51147;BME280;37207;53.060;18.726;2023-06-10T04:51:03;100973.27;;;19.15;58.11
51147;BME280;37207;53.060;18.726;2023-06-10T04:53:28;100970.08;;;19.25;57.67
51147;BME280;37207;53.060;18.726;2023-06-10T04:55:54;100973.19;;;19.35;57.72
51147;BME280;37207;53.060;18.726;2023-06-10T04:58:20;100978.08;;;19.46;57.62
51147;BME280;37207;53.060;18.726;2023-06-10T05:00:46;100981.11;;;19.54;57.12
51147;BME280;37207;53.060;18.726;2023-06-10T05:03:12;100982.83;;;19.57;57.20
51147;BME280;37207;53.060;18.726;2023-06-10T05:05:38;100988.96;;;19.64;57.04
51147;BME280;37207;53.060;18.726;2023-06-10T05:08:04;100995.13;;;19.66;56.73
51147;BME280;37207;53.060;18.726;2023-06-10T05:10:30;101005.64;;;19.66;56.45
51147;BME280;37207;53.060;18.726;2023-06-10T05:12:57;101009.19;;;19.67;56.51
51147;BME280;37207;53.060;18.726;2023-06-10T05:15:24;101005.27;;;19.69;56.38
51147;BME280;37207;53.060;18.726;2023-06-10T05:17:50;101000.59;;;19.74;56.16
51147;BME280;37207;53.060;18.726;2023-06-10T05:20:16;101005.40;;;19.74;56.22
51147;BME280;37207;53.060;18.726;2023-06-10T05:22:41;101006.41;;;19.75;56.02
51147;BME280;37207;53.060;18.726;2023-06-10T05:25:08;101007.04;;;19.74;55.90
51147;BME280;37207;53.060;18.726;2023-06-10T05:27:34;101008.41;;;19.77;56.18
51147;BME280;37207;53.060;18.726;2023-06-10T05:30:00;101006.29;;;19.82;55.92
51147;BME280;37207;53.060;18.726;2023-06-10T05:32:26;101003.88;;;19.80;55.71
51147;BME280;37207;53.060;18.726;2023-06-10T05:34:52;101000.77;;;19.80;55.65
51147;BME280;37207;53.060;18.726;2023-06-10T05:37:18;100996.75;;;19.82;55.87
51147;BME280;37207;53.060;18.726;2023-06-10T05:39:44;100993.48;;;19.85;56.02
51147;BME280;37207;53.060;18.726;2023-06-10T05:42:10;100996.99;;;19.86;55.85
51147;BME280;37207;53.060;18.726;2023-06-10T05:44:36;100996.98;;;19.88;55.93
51147;BME280;37207;53.060;18.726;2023-06-10T05:47:02;100996.39;;;19.91;55.87
51147;BME280;37207;53.060;18.726;2023-06-10T05:49:28;100993.41;;;19.93;56.04
51147;BME280;37207;53.060;18.726;2023-06-10T05:51:54;100998.86;;;19.98;56.13
51147;BME280;37207;53.060;18.726;2023-06-10T05:54:21;100999.73;;;20.03;55.88
51147;BME280;37207;53.060;18.726;2023-06-10T05:56:47;101002.88;;;20.08;55.76
51147;BME280;37207;53.060;18.726;2023-06-10T05:59:13;101002.00;;;20.13;55.58
51147;BME280;37207;53.060;18.726;2023-06-10T06:01:39;101004.43;;;20.19;55.70
51147;BME280;37207;53.060;18.726;2023-06-10T06:04:05;100997.41;;;20.27;55.49
51147;BME280;37207;53.060;18.726;2023-06-10T06:06:31;101002.42;;;20.33;55.26
51147;BME280;37207;53.060;18.726;2023-06-10T06:08:56;101002.27;;;20.37;54.96
51147;BME280;37207;53.060;18.726;2023-06-10T06:11:22;101004.18;;;20.40;55.02
51147;BME280;37207;53.060;18.726;2023-06-10T06:13:48;101008.90;;;20.45;54.51
51147;BME280;37207;53.060;18.726;2023-06-10T06:16:14;101007.88;;;20.48;54.43
51147;BME280;37207;53.060;18.726;2023-06-10T06:18:40;101010.75;;;20.55;54.67
51147;BME280;37207;53.060;18.726;2023-06-10T06:21:06;101014.49;;;20.62;54.30
51147;BME280;37207;53.060;18.726;2023-06-10T06:23:32;101016.36;;;20.72;54.31
51147;BME280;37207;53.060;18.726;2023-06-10T06:25:58;101017.73;;;20.84;54.03
51147;BME280;37207;53.060;18.726;2023-06-10T06:28:24;101017.64;;;20.99;53.98
51147;BME280;37207;53.060;18.726;2023-06-10T06:30:57;101012.62;;;21.13;53.62
51147;BME280;37207;53.060;18.726;2023-06-10T06:33:23;101011.46;;;21.24;52.96
51147;BME280;37207;53.060;18.726;2023-06-10T06:35:49;101014.05;;;21.32;53.15
51147;BME280;37207;53.060;18.726;2023-06-10T06:38:15;101013.44;;;21.34;52.61
51147;BME280;37207;53.060;18.726;2023-06-10T06:40:41;101019.02;;;21.31;52.59
51147;BME280;37207;53.060;18.726;2023-06-10T06:43:07;101023.27;;;21.35;52.78
51147;BME280;37207;53.060;18.726;2023-06-10T06:45:42;101025.70;;;21.44;52.50
51147;BME280;37207;53.060;18.726;2023-06-10T06:48:08;101026.71;;;21.53;52.51
51147;BME280;37207;53.060;18.726;2023-06-10T06:50:34;101030.14;;;21.68;52.48
51147;BME280;37207;53.060;18.726;2023-06-10T06:52:59;101030.76;;;21.82;52.05
51147;BME280;37207;53.060;18.726;2023-06-10T06:55:25;101031.96;;;21.98;51.71
51147;BME280;37207;53.060;18.726;2023-06-10T06:57:51;101033.35;;;22.10;51.34
51147;BME280;37207;53.060;18.726;2023-06-10T07:00:17;101041.48;;;22.29;51.29
51147;BME280;37207;53.060;18.726;2023-06-10T07:02:43;101035.54;;;22.48;50.75
51147;BME280;37207;53.060;18.726;2023-06-10T07:05:09;101038.17;;;22.65;50.69
51147;BME280;37207;53.060;18.726;2023-06-10T07:07:35;101044.27;;;22.80;50.39
51147;BME280;37207;53.060;18.726;2023-06-10T07:10:01;101043.00;;;22.94;49.68
51147;BME280;37207;53.060;18.726;2023-06-10T07:12:27;101044.17;;;23.08;49.81
51147;BME280;37207;53.060;18.726;2023-06-10T07:14:53;101049.99;;;23.28;49.76
51147;BME280;37207;53.060;18.726;2023-06-10T07:17:19;101049.19;;;23.47;49.33
51147;BME280;37207;53.060;18.726;2023-06-10T07:19:45;101047.67;;;23.66;49.12
51147;BME280;37207;53.060;18.726;2023-06-10T07:22:11;101046.04;;;23.87;48.87
51147;BME280;37207;53.060;18.726;2023-06-10T07:24:37;101044.16;;;24.04;47.80
51147;BME280;37207;53.060;18.726;2023-06-10T07:27:03;101042.41;;;24.11;47.44
51147;BME280;37207;53.060;18.726;2023-06-10T07:29:29;101042.67;;;24.28;47.18
51147;BME280;37207;53.060;18.726;2023-06-10T07:31:55;101047.48;;;24.44;47.05
51147;BME280;37207;53.060;18.726;2023-06-10T07:34:21;101045.15;;;24.63;46.53
51147;BME280;37207;53.060;18.726;2023-06-10T07:36:47;101048.27;;;24.81;46.62
51147;BME280;37207;53.060;18.726;2023-06-10T07:39:13;101043.38;;;25.03;46.64
51147;BME280;37207;53.060;18.726;2023-06-10T07:41:38;101043.88;;;25.22;45.28
51147;BME280;37207;53.060;18.726;2023-06-10T07:44:04;101039.19;;;25.36;45.36
51147;BME280;37207;53.060;18.726;2023-06-10T07:46:30;101041.41;;;25.55;44.91
51147;BME280;37207;53.060;18.726;2023-06-10T07:48:56;101041.01;;;25.68;44.49
51147;BME280;37207;53.060;18.726;2023-06-10T07:51:22;101045.52;;;25.79;44.00
51147;BME280;37207;53.060;18.726;2023-06-10T07:53:48;101046.02;;;25.95;43.92
51147;BME280;37207;53.060;18.726;2023-06-10T07:56:14;101049.20;;;26.13;43.70
51147;BME280;37207;53.060;18.726;2023-06-10T07:58:39;101047.59;;;26.31;43.19
51147;BME280;37207;53.060;18.726;2023-06-10T08:01:05;101046.27;;;26.48;42.49
51147;BME280;37207;53.060;18.726;2023-06-10T08:03:32;101048.07;;;26.56;42.22
51147;BME280;37207;53.060;18.726;2023-06-10T08:05:58;101046.66;;;26.73;42.52
51147;BME280;37207;53.060;18.726;2023-06-10T08:08:23;101051.21;;;26.89;42.03
51147;BME280;37207;53.060;18.726;2023-06-10T08:10:49;101049.90;;;27.09;41.77
51147;BME280;37207;53.060;18.726;2023-06-10T08:13:16;101054.07;;;27.26;41.24
51147;BME280;37207;53.060;18.726;2023-06-10T08:15:42;101053.48;;;27.45;41.22
51147;BME280;37207;53.060;18.726;2023-06-10T08:18:07;101061.27;;;27.56;40.23
51147;BME280;37207;53.060;18.726;2023-06-10T08:20:33;101058.70;;;27.63;40.11
51147;BME280;37207;53.060;18.726;2023-06-10T08:22:59;101063.19;;;27.76;40.11
51147;BME280;37207;53.060;18.726;2023-06-10T08:25:25;101063.80;;;27.86;39.14
51147;BME280;37207;53.060;18.726;2023-06-10T08:27:51;101066.46;;;27.87;38.80
51147;BME280;37207;53.060;18.726;2023-06-10T08:30:17;101066.15;;;27.89;38.17
51147;BME280;37207;53.060;18.726;2023-06-10T08:32:43;101070.14;;;27.87;38.00
51147;BME280;37207;53.060;18.726;2023-06-10T08:35:10;101073.77;;;27.96;38.21
51147;BME280;37207;53.060;18.726;2023-06-10T08:37:35;101072.04;;;28.11;38.23
51147;BME280;37207;53.060;18.726;2023-06-10T08:40:01;101075.52;;;28.25;37.66
51147;BME280;37207;53.060;18.726;2023-06-10T08:42:33;101073.05;;;28.33;37.45
51147;BME280;37207;53.060;18.726;2023-06-10T08:45:00;101075.63;;;28.43;37.47
51147;BME280;37207;53.060;18.726;2023-06-10T08:47:29;101078.55;;;28.50;37.01
51147;BME280;37207;53.060;18.726;2023-06-10T08:49:57;101079.71;;;28.56;36.77
51147;BME280;37207;53.060;18.726;2023-06-10T08:52:37;101080.63;;;28.63;36.73
51147;BME280;37207;53.060;18.726;2023-06-10T08:55:09;101074.04;;;28.70;36.29
51147;BME280;37207;53.060;18.726;2023-06-10T08:57:36;101078.14;;;28.68;35.67
51147;BME280;37207;53.060;18.726;2023-06-10T09:00:02;101073.41;;;28.71;35.70
51147;BME280;37207;53.060;18.726;2023-06-10T09:02:28;101073.92;;;28.91;36.06
51147;BME280;37207;53.060;18.726;2023-06-10T09:04:56;101075.76;;;29.17;35.85
51147;BME280;37207;53.060;18.726;2023-06-10T09:07:23;101077.39;;;29.35;35.08
51147;BME280;37207;53.060;18.726;2023-06-10T09:09:50;101077.17;;;29.59;35.22
51147;BME280;37207;53.060;18.726;2023-06-10T09:12:19;101075.90;;;29.80;34.42
51147;BME280;37207;53.060;18.726;2023-06-10T09:14:45;101074.19;;;29.97;34.07
51147;BME280;37207;53.060;18.726;2023-06-10T09:17:11;101075.13;;;30.27;33.93
51147;BME280;37207;53.060;18.726;2023-06-10T09:19:38;101072.27;;;30.77;33.67
51147;BME280;37207;53.060;18.726;2023-06-10T09:22:05;101069.88;;;31.24;31.73
51147;BME280;37207;53.060;18.726;2023-06-10T09:24:32;101072.52;;;31.56;31.40
51147;BME280;37207;53.060;18.726;2023-06-10T09:27:06;101069.89;;;31.99;30.78
51147;BME280;37207;53.060;18.726;2023-06-10T09:29:53;101070.55;;;32.54;30.44
51147;BME280;37207;53.060;18.726;2023-06-10T09:32:20;101070.40;;;32.82;29.82
51147;BME280;37207;53.060;18.726;2023-06-10T09:34:47;101064.92;;;32.63;30.24
51147;BME280;37207;53.060;18.726;2023-06-10T09:37:20;101071.07;;;32.58;29.80
51147;BME280;37207;53.060;18.726;2023-06-10T09:40:01;101070.96;;;32.59;30.10
51147;BME280;37207;53.060;18.726;2023-06-10T09:42:32;101065.39;;;32.71;30.28
51147;BME280;37207;53.060;18.726;2023-06-10T09:44:58;101060.90;;;32.86;29.96
51147;BME280;37207;53.060;18.726;2023-06-10T09:47:24;101062.80;;;32.90;29.15
51147;BME280;37207;53.060;18.726;2023-06-10T09:49:50;101060.84;;;32.85;29.35
51147;BME280;37207;53.060;18.726;2023-06-10T09:52:26;101059.14;;;32.82;28.44
51147;BME280;37207;53.060;18.726;2023-06-10T09:54:53;101060.95;;;32.71;28.48
51147;BME280;37207;53.060;18.726;2023-06-10T09:57:21;101060.77;;;32.73;28.57
51147;BME280;37207;53.060;18.726;2023-06-10T09:59:47;101060.02;;;32.73;28.12
51147;BME280;37207;53.060;18.726;2023-06-10T10:02:17;101059.34;;;32.73;28.66
51147;BME280;37207;53.060;18.726;2023-06-10T10:04:44;101056.80;;;32.66;27.96
51147;BME280;37207;53.060;18.726;2023-06-10T10:07:11;101063.09;;;32.48;27.58
51147;BME280;37207;53.060;18.726;2023-06-10T10:09:41;101061.38;;;32.25;27.73
51147;BME280;37207;53.060;18.726;2023-06-10T10:14:33;101057.64;;;32.07;27.86
51147;BME280;37207;53.060;18.726;2023-06-10T10:17:09;101059.72;;;31.93;27.78
51147;BME280;37207;53.060;18.726;2023-06-10T10:19:46;101057.78;;;31.97;28.03
51147;BME280;37207;53.060;18.726;2023-06-10T10:22:21;101047.68;;;31.97;27.63
51147;BME280;37207;53.060;18.726;2023-06-10T10:24:55;101046.12;;;31.98;27.58
51147;BME280;37207;53.060;18.726;2023-06-10T10:27:27;101055.55;;;32.00;27.75
51147;BME280;37207;53.060;18.726;2023-06-10T10:29:55;101052.86;;;32.18;27.66
51147;BME280;37207;53.060;18.726;2023-06-10T10:32:26;101063.14;;;32.38;27.02
51147;BME280;37207;53.060;18.726;2023-06-10T10:35:08;101057.84;;;32.44;26.59
51147;BME280;37207;53.060;18.726;2023-06-10T10:37:35;101060.48;;;32.55;26.61
51147;BME280;37207;53.060;18.726;2023-06-10T10:40:03;101062.23;;;32.71;26.18
51147;BME280;37207;53.060;18.726;2023-06-10T10:42:30;101063.17;;;32.94;26.18
51147;BME280;37207;53.060;18.726;2023-06-10T10:44:57;101065.09;;;33.28;26.17
51147;BME280;37207;53.060;18.726;2023-06-10T10:47:27;101060.35;;;33.53;25.29
51147;BME280;37207;53.060;18.726;2023-06-10T10:49:55;101060.15;;;33.91;25.06
51147;BME280;37207;53.060;18.726;2023-06-10T10:52:25;101060.23;;;34.35;24.49
51147;BME280;37207;53.060;18.726;2023-06-10T10:54:53;101058.42;;;34.82;23.42
51147;BME280;37207;53.060;18.726;2023-06-10T10:57:19;101057.96;;;35.40;23.03
51147;BME280;37207;53.060;18.726;2023-06-10T11:02:26;101061.08;;;36.26;21.55
51147;BME280;37207;53.060;18.726;2023-06-10T11:04:57;101060.09;;;36.91;21.01
51147;BME280;37207;53.060;18.726;2023-06-10T11:07:30;101060.96;;;37.34;20.08
51147;BME280;37207;53.060;18.726;2023-06-10T11:12:50;101062.81;;;37.94;19.69
51147;BME280;37207;53.060;18.726;2023-06-10T11:15:25;101059.95;;;38.12;18.82
51147;BME280;37207;53.060;18.726;2023-06-10T11:21:10;101056.87;;;38.02;18.32
51147;BME280;37207;53.060;18.726;2023-06-10T11:23:40;101057.93;;;37.90;18.10
51147;BME280;37207;53.060;18.726;2023-06-10T11:31:40;101052.46;;;36.90;17.23
51147;BME280;37207;53.060;18.726;2023-06-10T11:34:07;101051.80;;;36.76;17.81
51147;BME280;37207;53.060;18.726;2023-06-10T11:36:37;101053.94;;;36.60;17.47
51147;BME280;37207;53.060;18.726;2023-06-10T11:39:06;101052.71;;;36.50;18.03
51147;BME280;37207;53.060;18.726;2023-06-10T11:41:33;101048.68;;;36.40;18.06
51147;BME280;37207;53.060;18.726;2023-06-10T11:44:04;101044.02;;;36.30;18.18
51147;BME280;37207;53.060;18.726;2023-06-10T11:46:30;101051.11;;;35.99;17.87
51147;BME280;37207;53.060;18.726;2023-06-10T11:48:58;101048.28;;;35.86;18.79
51147;BME280;37207;53.060;18.726;2023-06-10T11:51:33;101048.36;;;35.91;19.44
51147;BME280;37207;53.060;18.726;2023-06-10T11:54:01;101048.22;;;35.88;19.07
51147;BME280;37207;53.060;18.726;2023-06-10T11:56:28;101046.99;;;35.79;18.94
51147;BME280;37207;53.060;18.726;2023-06-10T11:58:59;101044.77;;;35.61;18.15
51147;BME280;37207;53.060;18.726;2023-06-10T12:01:32;101041.40;;;35.22;18.00
51147;BME280;37207;53.060;18.726;2023-06-10T12:04:06;101042.77;;;34.91;17.98
51147;BME280;37207;53.060;18.726;2023-06-10T12:06:40;101048.77;;;34.72;18.77
51147;BME280;37207;53.060;18.726;2023-06-10T12:09:12;101046.55;;;34.58;18.73
51147;BME280;37207;53.060;18.726;2023-06-10T12:11:39;101038.20;;;34.54;18.92
51147;BME280;37207;53.060;18.726;2023-06-10T12:14:05;101041.23;;;34.54;19.17
51147;BME280;37207;53.060;18.726;2023-06-10T12:16:31;101038.30;;;34.53;19.23
51147;BME280;37207;53.060;18.726;2023-06-10T12:19:04;101039.16;;;34.59;19.54
51147;BME280;37207;53.060;18.726;2023-06-10T12:21:33;101037.98;;;34.59;19.35
51147;BME280;37207;53.060;18.726;2023-06-10T12:26:37;101036.52;;;34.58;20.21
51147;BME280;37207;53.060;18.726;2023-06-10T12:29:30;101036.70;;;34.56;19.31
51147;BME280;37207;53.060;18.726;2023-06-10T12:32:03;101042.52;;;34.36;19.05
51147;BME280;37207;53.060;18.726;2023-06-10T12:34:32;101036.00;;;34.23;18.98
51147;BME280;37207;53.060;18.726;2023-06-10T12:36:59;101033.41;;;34.01;19.19
51147;BME280;37207;53.060;18.726;2023-06-10T12:39:26;101032.38;;;33.80;19.12
51147;BME280;37207;53.060;18.726;2023-06-10T12:41:52;101036.96;;;33.60;19.08
51147;BME280;37207;53.060;18.726;2023-06-10T12:44:17;101032.07;;;33.37;19.23
51147;BME280;37207;53.060;18.726;2023-06-10T12:46:43;101027.52;;;33.27;19.84
51147;BME280;37207;53.060;18.726;2023-06-10T12:49:19;101028.29;;;33.22;19.97
51147;BME280;37207;53.060;18.726;2023-06-10T12:51:47;101026.52;;;33.05;19.82
51147;BME280;37207;53.060;18.726;2023-06-10T12:54:13;101022.99;;;32.89;19.59
51147;BME280;37207;53.060;18.726;2023-06-10T12:56:39;101022.50;;;32.62;19.78
51147;BME280;37207;53.060;18.726;2023-06-10T12:59:05;101020.98;;;32.57;20.27
51147;BME280;37207;53.060;18.726;2023-06-10T13:01:31;101015.28;;;32.63;20.62
51147;BME280;37207;53.060;18.726;2023-06-10T13:03:58;101014.17;;;32.61;20.67